sensor_id;sensor_type;location;lat;lon;timestamp;P1;durP1;ratioP1;P2;durP2;ratioP2
12867;SDS011;33517;49.866;8.320;2024-03-25T00:02:33;0.32;;;0.32;;
12867;SDS011;33517;49.866;8.320;2024-03-25T00:05:25;0.10;;;0.10;;
12867;SDS011;33517;49.866;8.320;2024-03-25T00:08:17;0.32;;;0.20;;
12867;SDS011;33517;49.866;8.320;2024-03-25T00:11:08;0.50;;;0.50;;
12867;SDS011;33517;49.866;8.320;2024-03-25T00:14:01;0.25;;;0.22;;
12867;SDS011;33517;49.866;8.320;2024-03-25T00:16:52;0.50;;;0.47;;
12867;SDS011;33517;49.866;8.320;2024-03-25T00:19:44;0.43;;;0.43;;
12867;SDS011;33517;49.866;8.320;2024-03-25T00:22:40;2.65;;;0.55;;
12867;SDS011;33517;49.866;8.320;2024-03-25T00:25:33;0.73;;;0.73;;
12867;SDS011;33517;49.866;8.320;2024-03-25T00:28:25;0.50;;;0.50;;
12867;SDS011;33517;49.866;8.320;2024-03-25T00:31:18;0.25;;;0.25;;
12867;SDS011;33517;49.866;8.320;2024-03-25T00:34:10;0.10;;;0.10;;
12867;SDS011;33517;49.866;8.320;2024-03-25T00:37:03;0.30;;;0.30;;
12867;SDS011;33517;49.866;8.320;2024-03-25T00:39:54;0.40;;;0.40;;
12867;SDS011;33517;49.866;8.320;2024-03-25T00:42:46;0.20;;;0.20;;
12867;SDS011;33517;49.866;8.320;2024-03-25T00:45:37;0.32;;;0.32;;
12867;SDS011;33517;49.866;8.320;2024-03-25T00:48:30;0.52;;;0.52;;
12867;SDS011;33517;49.866;8.320;2024-03-25T00:51:21;2.67;;;0.63;;
12867;SDS011;33517;49.866;8.320;2024-03-25T00:54:13;0.55;;;0.50;;
12867;SDS011;33517;49.866;8.320;2024-03-25T00:57:04;0.30;;;0.20;;
12867;SDS011;33517;49.866;8.320;2024-03-25T00:59:55;0.10;;;0.10;;
12867;SDS011;33517;49.866;8.320;2024-03-25T01:02:46;0.60;;;0.60;;
12867;SDS011;33517;49.866;8.320;2024-03-25T01:05:39;0.52;;;0.30;;
12867;SDS011;33517;49.866;8.320;2024-03-25T01:08:31;5.03;;;1.55;;
12867;SDS011;33517;49.866;8.320;2024-03-25T01:11:22;1.55;;;1.27;;
12867;SDS011;33517;49.866;8.320;2024-03-25T01:14:14;1.75;;;0.73;;
12867;SDS011;33517;49.866;8.320;2024-03-25T01:17:05;0.60;;;0.60;;
12867;SDS011;33517;49.866;8.320;2024-03-25T01:19:57;0.73;;;0.73;;
12867;SDS011;33517;49.866;8.320;2024-03-25T01:22:49;1.20;;;0.63;;
12867;SDS011;33517;49.866;8.320;2024-03-25T01:25:41;0.40;;;0.40;;
12867;SDS011;33517;49.866;8.320;2024-03-25T01:28:32;0.68;;;0.68;;
12867;SDS011;33517;49.866;8.320;2024-03-25T01:31:24;0.28;;;0.28;;
12867;SDS011;33517;49.866;8.320;2024-03-25T01:34:16;0.17;;;0.17;;
12867;SDS011;33517;49.866;8.320;2024-03-25T01:37:06;0.40;;;0.40;;
12867;SDS011;33517;49.866;8.320;2024-03-25T01:40:00;0.28;;;0.28;;
12867;SDS011;33517;49.866;8.320;2024-03-25T01:42:56;0.47;;;0.47;;
12867;SDS011;33517;49.866;8.320;2024-03-25T01:45:49;0.32;;;0.32;;
12867;SDS011;33517;49.866;8.320;2024-03-25T01:48:45;0.13;;;0.13;;
12867;SDS011;33517;49.866;8.320;2024-03-25T01:51:37;0.40;;;0.40;;
12867;SDS011;33517;49.866;8.320;2024-03-25T01:54:31;0.63;;;0.50;;
12867;SDS011;33517;49.866;8.320;2024-03-25T01:57:23;0.80;;;0.30;;
12867;SDS011;33517;49.866;8.320;2024-03-25T02:00:17;0.60;;;0.40;;
12867;SDS011;33517;49.866;8.320;2024-03-25T02:03:08;1.15;;;0.70;;
12867;SDS011;33517;49.866;8.320;2024-03-25T02:06:01;0.22;;;0.22;;
12867;SDS011;33517;49.866;8.320;2024-03-25T02:08:54;0.17;;;0.17;;
12867;SDS011;33517;49.866;8.320;2024-03-25T02:11:47;1.95;;;0.73;;
12867;SDS011;33517;49.866;8.320;2024-03-25T02:14:40;0.28;;;0.28;;
12867;SDS011;33517;49.866;8.320;2024-03-25T02:17:33;0.35;;;0.35;;
12867;SDS011;33517;49.866;8.320;2024-03-25T02:20:25;0.55;;;0.50;;
12867;SDS011;33517;49.866;8.320;2024-03-25T02:23:16;0.52;;;0.52;;
12867;SDS011;33517;49.866;8.320;2024-03-25T02:26:09;0.52;;;0.45;;
12867;SDS011;33517;49.866;8.320;2024-03-25T02:29:00;0.57;;;0.57;;
12867;SDS011;33517;49.866;8.320;2024-03-25T02:31:53;2.83;;;0.35;;
12867;SDS011;33517;49.866;8.320;2024-03-25T02:34:46;0.30;;;0.30;;
12867;SDS011;33517;49.866;8.320;2024-03-25T02:37:39;0.60;;;0.40;;
12867;SDS011;33517;49.866;8.320;2024-03-25T02:40:32;0.60;;;0.60;;
12867;SDS011;33517;49.866;8.320;2024-03-25T02:43:26;0.20;;;0.20;;
12867;SDS011;33517;49.866;8.320;2024-03-25T02:46:18;0.25;;;0.25;;
12867;SDS011;33517;49.866;8.320;2024-03-25T02:49:10;0.65;;;0.65;;
12867;SDS011;33517;49.866;8.320;2024-03-25T02:52:01;0.30;;;0.30;;
12867;SDS011;33517;49.866;8.320;2024-03-25T02:54:53;0.35;;;0.35;;
12867;SDS011;33517;49.866;8.320;2024-03-25T02:57:44;0.30;;;0.30;;
12867;SDS011;33517;49.866;8.320;2024-03-25T03:00:38;0.90;;;0.90;;
12867;SDS011;33517;49.866;8.320;2024-03-25T03:03:28;1.00;;;0.50;;
12867;SDS011;33517;49.866;8.320;2024-03-25T03:06:20;2.17;;;1.05;;
12867;SDS011;33517;49.866;8.320;2024-03-25T03:09:12;0.40;;;0.40;;
12867;SDS011;33517;49.866;8.320;2024-03-25T03:12:05;0.30;;;0.30;;
12867;SDS011;33517;49.866;8.320;2024-03-25T03:14:57;0.17;;;0.17;;
12867;SDS011;33517;49.866;8.320;2024-03-25T03:17:50;0.40;;;0.40;;
12867;SDS011;33517;49.866;8.320;2024-03-25T03:20:41;0.47;;;0.47;;
12867;SDS011;33517;49.866;8.320;2024-03-25T03:23:33;0.25;;;0.25;;
12867;SDS011;33517;49.866;8.320;2024-03-25T03:26:23;0.40;;;0.40;;
12867;SDS011;33517;49.866;8.320;2024-03-25T03:29:17;0.50;;;0.50;;
12867;SDS011;33517;49.866;8.320;2024-03-25T03:32:08;0.35;;;0.35;;
12867;SDS011;33517;49.866;8.320;2024-03-25T03:35:01;0.50;;;0.43;;
12867;SDS011;33517;49.866;8.320;2024-03-25T03:37:54;0.40;;;0.40;;
12867;SDS011;33517;49.866;8.320;2024-03-25T03:40:46;0.68;;;0.68;;
12867;SDS011;33517;49.866;8.320;2024-03-25T03:43:47;0.82;;;0.82;;
12867;SDS011;33517;49.866;8.320;2024-03-25T03:46:38;0.52;;;0.52;;
12867;SDS011;33517;49.866;8.320;2024-03-25T03:49:30;0.65;;;0.65;;
12867;SDS011;33517;49.866;8.320;2024-03-25T03:52:23;0.63;;;0.63;;
12867;SDS011;33517;49.866;8.320;2024-03-25T03:55:15;4.45;;;0.80;;
12867;SDS011;33517;49.866;8.320;2024-03-25T03:58:06;2.50;;;0.57;;
12867;SDS011;33517;49.866;8.320;2024-03-25T04:00:58;0.20;;;0.20;;
12867;SDS011;33517;49.866;8.320;2024-03-25T04:03:49;0.20;;;0.20;;
12867;SDS011;33517;49.866;8.320;2024-03-25T04:06:41;0.22;;;0.22;;
12867;SDS011;33517;49.866;8.320;2024-03-25T04:09:34;1.35;;;0.30;;
12867;SDS011;33517;49.866;8.320;2024-03-25T04:12:25;0.15;;;0.15;;
12867;SDS011;33517;49.866;8.320;2024-03-25T04:15:16;0.17;;;0.17;;
12867;SDS011;33517;49.866;8.320;2024-03-25T04:18:09;0.50;;;0.50;;
12867;SDS011;33517;49.866;8.320;2024-03-25T04:21:00;0.57;;;0.57;;
12867;SDS011;33517;49.866;8.320;2024-03-25T04:23:52;0.40;;;0.40;;
12867;SDS011;33517;49.866;8.320;2024-03-25T04:26:45;0.35;;;0.35;;
12867;SDS011;33517;49.866;8.320;2024-03-25T04:29:37;0.25;;;0.25;;
12867;SDS011;33517;49.866;8.320;2024-03-25T04:32:28;2.85;;;0.40;;
12867;SDS011;33517;49.866;8.320;2024-03-25T04:35:19;3.08;;;1.17;;
12867;SDS011;33517;49.866;8.320;2024-03-25T04:38:10;0.22;;;0.22;;
12867;SDS011;33517;49.866;8.320;2024-03-25T04:41:01;0.60;;;0.60;;
12867;SDS011;33517;49.866;8.320;2024-03-25T04:43:53;0.20;;;0.20;;
12867;SDS011;33517;49.866;8.320;2024-03-25T04:46:44;2.28;;;1.00;;
12867;SDS011;33517;49.866;8.320;2024-03-25T04:49:35;0.70;;;0.52;;
12867;SDS011;33517;49.866;8.320;2024-03-25T04:52:26;0.68;;;0.68;;
12867;SDS011;33517;49.866;8.320;2024-03-25T04:55:17;0.35;;;0.35;;
12867;SDS011;33517;49.866;8.320;2024-03-25T04:58:08;0.88;;;0.70;;
12867;SDS011;33517;49.866;8.320;2024-03-25T05:01:01;0.25;;;0.25;;
12867;SDS011;33517;49.866;8.320;2024-03-25T05:03:51;0.45;;;0.45;;
12867;SDS011;33517;49.866;8.320;2024-03-25T05:06:42;0.85;;;0.73;;
12867;SDS011;33517;49.866;8.320;2024-03-25T05:09:33;0.55;;;0.45;;
12867;SDS011;33517;49.866;8.320;2024-03-25T05:12:24;0.75;;;0.50;;
12867;SDS011;33517;49.866;8.320;2024-03-25T05:15:16;0.68;;;0.60;;
12867;SDS011;33517;49.866;8.320;2024-03-25T05:18:08;0.50;;;0.50;;
12867;SDS011;33517;49.866;8.320;2024-03-25T05:20:59;0.35;;;0.20;;
12867;SDS011;33517;49.866;8.320;2024-03-25T05:23:50;0.40;;;0.40;;
12867;SDS011;33517;49.866;8.320;2024-03-25T05:26:41;0.65;;;0.65;;
12867;SDS011;33517;49.866;8.320;2024-03-25T05:29:32;0.45;;;0.45;;
12867;SDS011;33517;49.866;8.320;2024-03-25T05:32:23;0.25;;;0.25;;
12867;SDS011;33517;49.866;8.320;2024-03-25T05:35:15;0.45;;;0.45;;
12867;SDS011;33517;49.866;8.320;2024-03-25T05:38:06;0.17;;;0.17;;
12867;SDS011;33517;49.866;8.320;2024-03-25T05:40:57;0.22;;;0.22;;
12867;SDS011;33517;49.866;8.320;2024-03-25T05:43:48;0.55;;;0.40;;
12867;SDS011;33517;49.866;8.320;2024-03-25T05:46:39;0.82;;;0.80;;
12867;SDS011;33517;49.866;8.320;2024-03-25T05:49:30;0.30;;;0.30;;
12867;SDS011;33517;49.866;8.320;2024-03-25T05:52:22;0.65;;;0.65;;
12867;SDS011;33517;49.866;8.320;2024-03-25T05:55:13;0.15;;;0.15;;
12867;SDS011;33517;49.866;8.320;2024-03-25T05:58:04;0.30;;;0.30;;
12867;SDS011;33517;49.866;8.320;2024-03-25T06:00:55;0.35;;;0.32;;
12867;SDS011;33517;49.866;8.320;2024-03-25T06:03:46;0.38;;;0.38;;
12867;SDS011;33517;49.866;8.320;2024-03-25T06:06:37;0.50;;;0.50;;
12867;SDS011;33517;49.866;8.320;2024-03-25T06:09:30;0.55;;;0.52;;
12867;SDS011;33517;49.866;8.320;2024-03-25T06:12:20;0.63;;;0.63;;
12867;SDS011;33517;49.866;8.320;2024-03-25T06:15:11;0.98;;;0.82;;
12867;SDS011;33517;49.866;8.320;2024-03-25T06:18:03;0.98;;;0.55;;
12867;SDS011;33517;49.866;8.320;2024-03-25T06:20:54;0.30;;;0.30;;
12867;SDS011;33517;49.866;8.320;2024-03-25T06:23:46;0.70;;;0.70;;
12867;SDS011;33517;49.866;8.320;2024-03-25T06:26:38;0.73;;;0.73;;
12867;SDS011;33517;49.866;8.320;2024-03-25T06:29:29;3.38;;;1.00;;
12867;SDS011;33517;49.866;8.320;2024-03-25T06:32:20;2.05;;;1.05;;
12867;SDS011;33517;49.866;8.320;2024-03-25T06:35:38;1.25;;;1.13;;
12867;SDS011;33517;49.866;8.320;2024-03-25T06:38:29;10.23;;;1.05;;
12867;SDS011;33517;49.866;8.320;2024-03-25T06:41:20;1.00;;;0.90;;
12867;SDS011;33517;49.866;8.320;2024-03-25T06:44:12;1.45;;;0.80;;
12867;SDS011;33517;49.866;8.320;2024-03-25T06:47:03;1.02;;;0.93;;
12867;SDS011;33517;49.866;8.320;2024-03-25T06:49:54;7.57;;;0.90;;
12867;SDS011;33517;49.866;8.320;2024-03-25T06:52:45;7.38;;;1.33;;
12867;SDS011;33517;49.866;8.320;2024-03-25T06:55:36;3.85;;;1.30;;
12867;SDS011;33517;49.866;8.320;2024-03-25T06:58:27;5.97;;;1.40;;
12867;SDS011;33517;49.866;8.320;2024-03-25T07:01:20;0.50;;;0.50;;
12867;SDS011;33517;49.866;8.320;2024-03-25T07:04:11;1.00;;;0.90;;
12867;SDS011;33517;49.866;8.320;2024-03-25T07:07:02;0.90;;;0.85;;
12867;SDS011;33517;49.866;8.320;2024-03-25T07:09:53;1.77;;;0.85;;
12867;SDS011;33517;49.866;8.320;2024-03-25T07:12:44;4.47;;;1.10;;
12867;SDS011;33517;49.866;8.320;2024-03-25T07:15:35;5.70;;;0.85;;
12867;SDS011;33517;49.866;8.320;2024-03-25T07:18:28;0.60;;;0.60;;
12867;SDS011;33517;49.866;8.320;2024-03-25T07:21:19;3.17;;;1.08;;
12867;SDS011;33517;49.866;8.320;2024-03-25T07:24:10;1.85;;;0.90;;
12867;SDS011;33517;49.866;8.320;2024-03-25T07:27:01;1.20;;;0.70;;
12867;SDS011;33517;49.866;8.320;2024-03-25T07:29:52;0.73;;;0.70;;
12867;SDS011;33517;49.866;8.320;2024-03-25T07:32:42;0.93;;;0.90;;
12867;SDS011;33517;49.866;8.320;2024-03-25T07:35:35;0.60;;;0.60;;
12867;SDS011;33517;49.866;8.320;2024-03-25T07:38:26;2.25;;;0.80;;
12867;SDS011;33517;49.866;8.320;2024-03-25T07:41:17;0.90;;;0.90;;
12867;SDS011;33517;49.866;8.320;2024-03-25T07:44:08;1.85;;;1.05;;
12867;SDS011;33517;49.866;8.320;2024-03-25T07:46:59;0.90;;;0.85;;
12867;SDS011;33517;49.866;8.320;2024-03-25T07:49:50;3.55;;;0.65;;
12867;SDS011;33517;49.866;8.320;2024-03-25T07:52:43;1.20;;;1.10;;
12867;SDS011;33517;49.866;8.320;2024-03-25T07:55:34;1.00;;;0.47;;
12867;SDS011;33517;49.866;8.320;2024-03-25T07:58:25;1.27;;;1.05;;
12867;SDS011;33517;49.866;8.320;2024-03-25T08:01:16;3.42;;;0.70;;
12867;SDS011;33517;49.866;8.320;2024-03-25T08:04:07;4.28;;;1.23;;
12867;SDS011;33517;49.866;8.320;2024-03-25T08:06:58;1.08;;;0.73;;
12867;SDS011;33517;49.866;8.320;2024-03-25T08:09:51;2.35;;;1.10;;
12867;SDS011;33517;49.866;8.320;2024-03-25T08:12:42;1.38;;;0.90;;
12867;SDS011;33517;49.866;8.320;2024-03-25T08:15:33;1.08;;;0.60;;
12867;SDS011;33517;49.866;8.320;2024-03-25T08:18:24;2.72;;;1.10;;
12867;SDS011;33517;49.866;8.320;2024-03-25T08:21:15;1.20;;;0.88;;
12867;SDS011;33517;49.866;8.320;2024-03-25T08:24:06;3.33;;;0.88;;
12867;SDS011;33517;49.866;8.320;2024-03-25T08:26:58;5.10;;;1.10;;
12867;SDS011;33517;49.866;8.320;2024-03-25T08:29:49;0.80;;;0.80;;
12867;SDS011;33517;49.866;8.320;2024-03-25T08:32:40;3.45;;;1.02;;
12867;SDS011;33517;49.866;8.320;2024-03-25T08:35:31;2.90;;;0.77;;
12867;SDS011;33517;49.866;8.320;2024-03-25T08:38:22;1.83;;;1.00;;
12867;SDS011;33517;49.866;8.320;2024-03-25T08:41:13;1.05;;;0.88;;
12867;SDS011;33517;49.866;8.320;2024-03-25T08:44:06;1.15;;;1.00;;
12867;SDS011;33517;49.866;8.320;2024-03-25T08:46:57;1.58;;;0.77;;
12867;SDS011;33517;49.866;8.320;2024-03-25T08:49:48;8.32;;;0.77;;
12867;SDS011;33517;49.866;8.320;2024-03-25T08:52:39;1.25;;;0.65;;
12867;SDS011;33517;49.866;8.320;2024-03-25T08:55:30;1.15;;;0.70;;
12867;SDS011;33517;49.866;8.320;2024-03-25T08:58:22;0.70;;;0.70;;
12867;SDS011;33517;49.866;8.320;2024-03-25T09:01:14;1.15;;;0.73;;
12867;SDS011;33517;49.866;8.320;2024-03-25T09:04:05;1.42;;;0.93;;
12867;SDS011;33517;49.866;8.320;2024-03-25T09:06:56;1.08;;;0.80;;
12867;SDS011;33517;49.866;8.320;2024-03-25T09:09:47;2.00;;;1.23;;
12867;SDS011;33517;49.866;8.320;2024-03-25T09:12:56;1.83;;;1.10;;
12867;SDS011;33517;49.866;8.320;2024-03-25T09:15:47;1.90;;;1.08;;
12867;SDS011;33517;49.866;8.320;2024-03-25T09:18:39;1.73;;;0.95;;
12867;SDS011;33517;49.866;8.320;2024-03-25T09:21:30;1.75;;;0.95;;
12867;SDS011;33517;49.866;8.320;2024-03-25T09:24:21;1.17;;;0.82;;
12867;SDS011;33517;49.866;8.320;2024-03-25T09:27:12;2.60;;;1.55;;
12867;SDS011;33517;49.866;8.320;2024-03-25T09:30:03;1.70;;;1.00;;
12867;SDS011;33517;49.866;8.320;2024-03-25T09:32:55;0.68;;;0.68;;
12867;SDS011;33517;49.866;8.320;2024-03-25T09:35:48;1.98;;;1.00;;
12867;SDS011;33517;49.866;8.320;2024-03-25T09:38:39;4.95;;;0.98;;
12867;SDS011;33517;49.866;8.320;2024-03-25T09:41:30;1.20;;;1.10;;
12867;SDS011;33517;49.866;8.320;2024-03-25T09:44:22;1.08;;;0.98;;
12867;SDS011;33517;49.866;8.320;2024-03-25T09:47:14;1.88;;;1.40;;
12867;SDS011;33517;49.866;8.320;2024-03-25T09:50:06;7.13;;;1.63;;
12867;SDS011;33517;49.866;8.320;2024-03-25T09:53:00;1.67;;;0.70;;
12867;SDS011;33517;49.866;8.320;2024-03-25T09:55:51;0.85;;;0.85;;
12867;SDS011;33517;49.866;8.320;2024-03-25T09:58:42;1.10;;;0.88;;
12867;SDS011;33517;49.866;8.320;2024-03-25T10:01:34;2.50;;;1.50;;
12867;SDS011;33517;49.866;8.320;2024-03-25T10:04:25;2.80;;;1.27;;
12867;SDS011;33517;49.866;8.320;2024-03-25T10:07:21;1.33;;;1.23;;
12867;SDS011;33517;49.866;8.320;2024-03-25T10:10:18;1.45;;;1.20;;
12867;SDS011;33517;49.866;8.320;2024-03-25T10:13:10;1.15;;;0.90;;
12867;SDS011;33517;49.866;8.320;2024-03-25T10:16:02;1.55;;;1.17;;
12867;SDS011;33517;49.866;8.320;2024-03-25T10:18:53;2.67;;;1.40;;
12867;SDS011;33517;49.866;8.320;2024-03-25T10:21:44;0.82;;;0.73;;
12867;SDS011;33517;49.866;8.320;2024-03-25T10:24:36;3.10;;;1.85;;
12867;SDS011;33517;49.866;8.320;2024-03-25T10:27:30;3.00;;;1.17;;
12867;SDS011;33517;49.866;8.320;2024-03-25T10:30:21;1.58;;;1.30;;
12867;SDS011;33517;49.866;8.320;2024-03-25T10:33:13;5.18;;;1.45;;
12867;SDS011;33517;49.866;8.320;2024-03-25T10:36:04;4.45;;;1.90;;
12867;SDS011;33517;49.866;8.320;2024-03-25T10:39:01;1.08;;;0.90;;
12867;SDS011;33517;49.866;8.320;2024-03-25T10:41:55;4.32;;;1.17;;
12867;SDS011;33517;49.866;8.320;2024-03-25T10:44:48;2.95;;;2.17;;
12867;SDS011;33517;49.866;8.320;2024-03-25T10:47:39;2.10;;;1.23;;
12867;SDS011;33517;49.866;8.320;2024-03-25T10:50:30;5.38;;;1.40;;
12867;SDS011;33517;49.866;8.320;2024-03-25T10:53:24;1.02;;;1.00;;
12867;SDS011;33517;49.866;8.320;2024-03-25T10:56:19;0.77;;;0.77;;
12867;SDS011;33517;49.866;8.320;2024-03-25T10:59:11;5.90;;;1.30;;
12867;SDS011;33517;49.866;8.320;2024-03-25T11:02:05;2.42;;;1.02;;
12867;SDS011;33517;49.866;8.320;2024-03-25T11:04:56;2.50;;;1.10;;
12867;SDS011;33517;49.866;8.320;2024-03-25T11:07:47;1.88;;;1.02;;
12867;SDS011;33517;49.866;8.320;2024-03-25T11:10:42;1.05;;;0.95;;
12867;SDS011;33517;49.866;8.320;2024-03-25T11:13:34;4.97;;;1.08;;
12867;SDS011;33517;49.866;8.320;2024-03-25T11:16:31;1.30;;;1.08;;
12867;SDS011;33517;49.866;8.320;2024-03-25T11:19:26;3.83;;;1.80;;
12867;SDS011;33517;49.866;8.320;2024-03-25T11:22:23;1.65;;;0.70;;
12867;SDS011;33517;49.866;8.320;2024-03-25T11:25:15;8.10;;;2.17;;
12867;SDS011;33517;49.866;8.320;2024-03-25T11:28:06;1.58;;;1.02;;
12867;SDS011;33517;49.866;8.320;2024-03-25T11:30:59;1.23;;;1.00;;
12867;SDS011;33517;49.866;8.320;2024-03-25T11:33:50;3.05;;;1.77;;
12867;SDS011;33517;49.866;8.320;2024-03-25T11:36:42;1.98;;;1.35;;
12867;SDS011;33517;49.866;8.320;2024-03-25T11:39:33;3.50;;;1.13;;
12867;SDS011;33517;49.866;8.320;2024-03-25T11:42:24;3.35;;;1.40;;
12867;SDS011;33517;49.866;8.320;2024-03-25T11:45:15;3.35;;;1.27;;
12867;SDS011;33517;49.866;8.320;2024-03-25T11:48:07;1.10;;;0.88;;
12867;SDS011;33517;49.866;8.320;2024-03-25T11:50:58;1.67;;;1.40;;
12867;SDS011;33517;49.866;8.320;2024-03-25T11:53:51;1.08;;;0.98;;
12867;SDS011;33517;49.866;8.320;2024-03-25T11:56:42;1.13;;;0.98;;
12867;SDS011;33517;49.866;8.320;2024-03-25T11:59:33;2.80;;;1.27;;
12867;SDS011;33517;49.866;8.320;2024-03-25T12:02:24;3.75;;;1.25;;
12867;SDS011;33517;49.866;8.320;2024-03-25T12:05:16;4.15;;;1.48;;
12867;SDS011;33517;49.866;8.320;2024-03-25T12:08:07;2.20;;;1.05;;
12867;SDS011;33517;49.866;8.320;2024-03-25T12:11:00;2.67;;;1.35;;
12867;SDS011;33517;49.866;8.320;2024-03-25T12:14:10;1.30;;;1.17;;
12867;SDS011;33517;49.866;8.320;2024-03-25T12:17:01;1.35;;;0.95;;
12867;SDS011;33517;49.866;8.320;2024-03-25T12:19:59;1.08;;;0.90;;
12867;SDS011;33517;49.866;8.320;2024-03-25T12:22:54;2.97;;;0.98;;
12867;SDS011;33517;49.866;8.320;2024-03-25T12:25:47;1.58;;;1.20;;
12867;SDS011;33517;49.866;8.320;2024-03-25T12:28:40;1.38;;;1.05;;
12867;SDS011;33517;49.866;8.320;2024-03-25T12:31:31;1.05;;;0.80;;
12867;SDS011;33517;49.866;8.320;2024-03-25T12:34:22;1.63;;;1.13;;
12867;SDS011;33517;49.866;8.320;2024-03-25T12:37:15;0.93;;;0.80;;
12867;SDS011;33517;49.866;8.320;2024-03-25T12:40:07;2.33;;;1.02;;
12867;SDS011;33517;49.866;8.320;2024-03-25T12:43:00;2.67;;;1.08;;
12867;SDS011;33517;49.866;8.320;2024-03-25T12:45:52;2.13;;;1.20;;
12867;SDS011;33517;49.866;8.320;2024-03-25T12:48:43;1.10;;;0.90;;
12867;SDS011;33517;49.866;8.320;2024-03-25T12:51:34;0.85;;;0.75;;
12867;SDS011;33517;49.866;8.320;2024-03-25T12:54:25;1.77;;;1.13;;
12867;SDS011;33517;49.866;8.320;2024-03-25T12:57:16;3.00;;;1.65;;
12867;SDS011;33517;49.866;8.320;2024-03-25T13:00:07;1.23;;;0.93;;
12867;SDS011;33517;49.866;8.320;2024-03-25T13:03:00;4.22;;;1.10;;
12867;SDS011;33517;49.866;8.320;2024-03-25T13:05:52;3.00;;;1.20;;
12867;SDS011;33517;49.866;8.320;2024-03-25T13:08:43;2.28;;;1.20;;
12867;SDS011;33517;49.866;8.320;2024-03-25T13:11:33;2.70;;;1.00;;
12867;SDS011;33517;49.866;8.320;2024-03-25T13:14:25;1.42;;;1.15;;
12867;SDS011;33517;49.866;8.320;2024-03-25T13:17:16;2.17;;;1.00;;
12867;SDS011;33517;49.866;8.320;2024-03-25T13:20:08;2.92;;;1.52;;
12867;SDS011;33517;49.866;8.320;2024-03-25T13:23:00;0.90;;;0.90;;
12867;SDS011;33517;49.866;8.320;2024-03-25T13:25:51;1.17;;;1.08;;
12867;SDS011;33517;49.866;8.320;2024-03-25T13:28:42;2.88;;;1.20;;
12867;SDS011;33517;49.866;8.320;2024-03-25T13:31:33;3.38;;;1.58;;
12867;SDS011;33517;49.866;8.320;2024-03-25T13:34:24;3.25;;;1.27;;
12867;SDS011;33517;49.866;8.320;2024-03-25T13:37:17;2.85;;;1.08;;
12867;SDS011;33517;49.866;8.320;2024-03-25T13:40:08;5.45;;;1.25;;
12867;SDS011;33517;49.866;8.320;2024-03-25T13:42:59;5.13;;;1.70;;
12867;SDS011;33517;49.866;8.320;2024-03-25T13:45:50;1.48;;;1.35;;
12867;SDS011;33517;49.866;8.320;2024-03-25T13:48:41;1.65;;;1.23;;
12867;SDS011;33517;49.866;8.320;2024-03-25T13:51:32;2.15;;;1.02;;
12867;SDS011;33517;49.866;8.320;2024-03-25T13:54:26;3.05;;;1.20;;
12867;SDS011;33517;49.866;8.320;2024-03-25T13:57:17;2.05;;;1.17;;
12867;SDS011;33517;49.866;8.320;2024-03-25T14:00:08;1.40;;;1.10;;
12867;SDS011;33517;49.866;8.320;2024-03-25T14:03:00;2.17;;;1.17;;
12867;SDS011;33517;49.866;8.320;2024-03-25T14:05:51;8.05;;;1.23;;
12867;SDS011;33517;49.866;8.320;2024-03-25T14:08:42;6.18;;;3.28;;
12867;SDS011;33517;49.866;8.320;2024-03-25T14:11:34;3.22;;;2.03;;
12867;SDS011;33517;49.866;8.320;2024-03-25T14:14:25;2.85;;;0.90;;
12867;SDS011;33517;49.866;8.320;2024-03-25T14:17:16;1.40;;;0.82;;
12867;SDS011;33517;49.866;8.320;2024-03-25T14:20:08;3.53;;;2.58;;
12867;SDS011;33517;49.866;8.320;2024-03-25T14:22:59;1.27;;;1.15;;
12867;SDS011;33517;49.866;8.320;2024-03-25T14:25:50;1.88;;;1.50;;
12867;SDS011;33517;49.866;8.320;2024-03-25T14:28:43;1.13;;;0.90;;
12867;SDS011;33517;49.866;8.320;2024-03-25T14:31:34;2.22;;;1.52;;
12867;SDS011;33517;49.866;8.320;2024-03-25T14:34:25;1.10;;;1.00;;
12867;SDS011;33517;49.866;8.320;2024-03-25T14:37:16;1.05;;;0.95;;
12867;SDS011;33517;49.866;8.320;2024-03-25T14:40:07;1.45;;;1.10;;
12867;SDS011;33517;49.866;8.320;2024-03-25T14:42:58;1.05;;;0.93;;
12867;SDS011;33517;49.866;8.320;2024-03-25T14:45:51;1.88;;;1.33;;
12867;SDS011;33517;49.866;8.320;2024-03-25T14:48:42;1.02;;;0.60;;
12867;SDS011;33517;49.866;8.320;2024-03-25T14:51:32;3.08;;;1.05;;
12867;SDS011;33517;49.866;8.320;2024-03-25T14:54:23;0.90;;;0.90;;
12867;SDS011;33517;49.866;8.320;2024-03-25T14:57:23;3.90;;;1.90;;
12867;SDS011;33517;49.866;8.320;2024-03-25T15:00:14;1.95;;;0.90;;
12867;SDS011;33517;49.866;8.320;2024-03-25T15:03:07;0.63;;;0.63;;
12867;SDS011;33517;49.866;8.320;2024-03-25T15:05:58;0.57;;;0.57;;
12867;SDS011;33517;49.866;8.320;2024-03-25T15:08:49;13.80;;;0.95;;
12867;SDS011;33517;49.866;8.320;2024-03-25T15:11:40;11.48;;;1.05;;
12867;SDS011;33517;49.866;8.320;2024-03-25T15:14:31;1.05;;;0.80;;
12867;SDS011;33517;49.866;8.320;2024-03-25T15:17:22;1.38;;;1.05;;
12867;SDS011;33517;49.866;8.320;2024-03-25T15:20:14;0.50;;;0.50;;
12867;SDS011;33517;49.866;8.320;2024-03-25T15:23:05;0.40;;;0.40;;
12867;SDS011;33517;49.866;8.320;2024-03-25T15:25:57;0.65;;;0.50;;
12867;SDS011;33517;49.866;8.320;2024-03-25T15:28:49;1.08;;;0.55;;
12867;SDS011;33517;49.866;8.320;2024-03-25T15:31:40;0.63;;;0.63;;
12867;SDS011;33517;49.866;8.320;2024-03-25T15:34:31;0.50;;;0.50;;
12867;SDS011;33517;49.866;8.320;2024-03-25T15:37:23;0.30;;;0.30;;
12867;SDS011;33517;49.866;8.320;2024-03-25T15:40:14;0.88;;;0.65;;
12867;SDS011;33517;49.866;8.320;2024-03-25T15:43:06;0.60;;;0.60;;
12867;SDS011;33517;49.866;8.320;2024-03-25T15:45:57;1.17;;;0.75;;
12867;SDS011;33517;49.866;8.320;2024-03-25T15:48:49;1.05;;;0.63;;
12867;SDS011;33517;49.866;8.320;2024-03-25T15:51:39;1.10;;;0.77;;
12867;SDS011;33517;49.866;8.320;2024-03-25T15:54:32;1.23;;;0.50;;
12867;SDS011;33517;49.866;8.320;2024-03-25T15:57:23;0.20;;;0.20;;
12867;SDS011;33517;49.866;8.320;2024-03-25T16:00:14;0.32;;;0.32;;
12867;SDS011;33517;49.866;8.320;2024-03-25T16:03:05;0.25;;;0.25;;
12867;SDS011;33517;49.866;8.320;2024-03-25T16:05:56;4.18;;;1.02;;
12867;SDS011;33517;49.866;8.320;2024-03-25T16:08:47;0.40;;;0.40;;
12867;SDS011;33517;49.866;8.320;2024-03-25T16:11:39;0.80;;;0.55;;
12867;SDS011;33517;49.866;8.320;2024-03-25T16:14:31;0.50;;;0.50;;
12867;SDS011;33517;49.866;8.320;2024-03-25T16:17:22;0.40;;;0.40;;
12867;SDS011;33517;49.866;8.320;2024-03-25T16:20:13;1.20;;;0.98;;
12867;SDS011;33517;49.866;8.320;2024-03-25T16:23:05;1.65;;;0.90;;
12867;SDS011;33517;49.866;8.320;2024-03-25T16:25:55;0.65;;;0.65;;
12867;SDS011;33517;49.866;8.320;2024-03-25T16:28:48;1.58;;;0.75;;
12867;SDS011;33517;49.866;8.320;2024-03-25T16:31:39;0.40;;;0.40;;
12867;SDS011;33517;49.866;8.320;2024-03-25T16:34:30;0.52;;;0.40;;
12867;SDS011;33517;49.866;8.320;2024-03-25T16:37:21;0.60;;;0.60;;
12867;SDS011;33517;49.866;8.320;2024-03-25T16:40:12;4.50;;;1.80;;
12867;SDS011;33517;49.866;8.320;2024-03-25T16:43:03;2.83;;;1.80;;
12867;SDS011;33517;49.866;8.320;2024-03-25T16:45:55;3.75;;;2.83;;
12867;SDS011;33517;49.866;8.320;2024-03-25T16:48:46;1.98;;;1.30;;
12867;SDS011;33517;49.866;8.320;2024-03-25T16:51:37;5.50;;;3.22;;
12867;SDS011;33517;49.866;8.320;2024-03-25T16:54:28;14.38;;;5.53;;
12867;SDS011;33517;49.866;8.320;2024-03-25T16:57:19;6.75;;;3.00;;
12867;SDS011;33517;49.866;8.320;2024-03-25T17:00:11;9.52;;;5.30;;
12867;SDS011;33517;49.866;8.320;2024-03-25T17:03:04;8.18;;;3.20;;
12867;SDS011;33517;49.866;8.320;2024-03-25T17:05:55;1.13;;;0.98;;
12867;SDS011;33517;49.866;8.320;2024-03-25T17:08:46;1.13;;;1.02;;
12867;SDS011;33517;49.866;8.320;2024-03-25T17:11:37;0.52;;;0.52;;
12867;SDS011;33517;49.866;8.320;2024-03-25T17:14:28;7.22;;;4.03;;
12867;SDS011;33517;49.866;8.320;2024-03-25T17:17:19;11.30;;;4.55;;